Time;durP1;ratioP1;P1;durP2;ratioP2;P2;SDS_P1;SDS_P2;PMS_P1;PMS_P2;Temp;Humidity;BMP_temperature;BMP_pressure;BME280_temperature;BME280_humidity;BME280_pressure;Samples;Min_cycle;Max_cycle;Signal;HPM_P1;HPM_P2
2022/02/12 00:01:05;;;;;;;8.93;5.03;;;0.60;93.70;;;;;;5038295;28;20243;-80
2022/02/12 00:03:33;;;;;;;9.67;6.20;;;0.70;94.10;;;;;;5033207;28;20213;-80
2022/02/12 00:05:59;;;;;;;11.17;6.27;;;1.00;94.20;;;;;;5032225;28;20230;-83
2022/02/12 00:08:26;;;;;;;11.03;6.10;;;1.60;94.40;;;;;;5037138;28;20309;-79
2022/02/12 00:10:53;;;;;;;12.83;6.60;;;1.90;93.30;;;;;;5028694;28;20258;-79
2022/02/12 00:13:20;;;;;;;8.60;5.23;;;2.30;92.40;;;;;;5041267;28;20292;-79
2022/02/12 00:15:49;;;;;;;9.90;5.87;;;2.40;91.80;;;;;;5038397;28;20281;-79
2022/02/12 00:18:16;;;;;;;7.33;4.70;;;2.50;91.30;;;;;;5036054;28;20208;-80
2022/02/12 00:20:43;;;;;;;5.67;3.70;;;2.60;90.20;;;;;;5042869;28;20234;-80
2022/02/12 00:23:10;;;;;;;6.37;3.70;;;2.20;87.20;;;;;;5035230;28;20191;-81
2022/02/12 00:25:36;;;;;;;6.77;3.70;;;1.70;88.20;;;;;;5037904;28;20218;-79
2022/02/12 00:28:04;;;;;;;9.13;3.60;;;1.40;91.30;;;;;;5042899;28;20220;-79
2022/02/12 00:30:31;;;;;;;7.17;4.73;;;1.20;91.60;;;;;;5038689;28;20229;-80
2022/02/12 00:33:01;;;;;;;7.43;4.67;;;1.00;93.10;;;;;;5038849;28;20285;-79
2022/02/12 00:35:28;;;;;;;8.87;5.30;;;1.30;93.80;;;;;;5036271;28;20229;-80
2022/02/12 00:37:58;;;;;;;8.87;4.37;;;1.70;93.60;;;;;;5045661;28;20206;-80
2022/02/12 00:40:27;;;;;;;7.87;4.77;;;2.00;92.90;;;;;;5036044;28;20229;-79
2022/02/12 00:42:54;;;;;;;8.93;4.50;;;2.20;92.10;;;;;;5035252;28;20208;-79
2022/02/12 00:45:22;;;;;;;7.30;4.27;;;2.30;91.70;;;;;;5035673;28;20254;-83
2022/02/12 00:47:48;;;;;;;6.50;3.50;;;2.30;90.90;;;;;;5031455;28;20222;-79
2022/02/12 00:50:17;;;;;;;6.10;4.07;;;2.10;90.10;;;;;;5035446;28;20237;-85
2022/02/12 00:52:44;;;;;;;5.97;4.10;;;1.80;90.80;;;;;;5039114;28;20260;-79
2022/02/12 00:55:11;;;;;;;4.83;3.70;;;1.70;91.70;;;;;;5037146;28;20234;-79
2022/02/12 00:57:38;;;;;;;4.90;3.77;;;1.50;91.60;;;;;;5039824;28;20236;-80
2022/02/12 01:00:24;;;;;;;6.17;4.13;;;1.40;91.60;;;;;;5038466;28;20228;-79
2022/02/12 01:02:51;;;;;;;6.07;3.60;;;1.20;92.40;;;;;;5029452;28;20287;-80
2022/02/12 01:05:19;;;;;;;7.77;3.93;;;1.10;92.30;;;;;;5032628;28;20336;-79
2022/02/12 01:07:47;;;;;;;7.07;4.20;;;1.30;93.40;;;;;;5032468;28;20199;-79
2022/02/12 01:10:14;;;;;;;11.27;3.80;;;1.50;93.10;;;;;;5039608;28;20331;-80
2022/02/12 01:12:42;;;;;;;4.83;3.37;;;1.40;91.60;;;;;;5050865;28;20221;-80
2022/02/12 01:15:10;;;;;;;8.03;3.90;;;0.90;91.50;;;;;;5037014;28;20232;-79
2022/02/12 01:17:37;;;;;;;6.37;4.53;;;0.70;92.40;;;;;;5034343;28;20233;-79
2022/02/12 01:20:06;;;;;;;8.33;4.20;;;0.80;94.90;;;;;;5038125;28;20245;-79
2022/02/12 01:22:34;;;;;;;5.93;4.20;;;1.20;94.30;;;;;;5039526;28;20208;-79
2022/02/12 01:25:01;;;;;;;7.50;4.23;;;1.60;93.70;;;;;;5037787;28;20214;-80
2022/02/12 01:27:28;;;;;;;7.17;4.23;;;1.80;92.90;;;;;;5038746;28;20196;-79
2022/02/12 01:29:55;;;;;;;7.40;3.77;;;2.00;92.20;;;;;;5034890;28;20229;-80
2022/02/12 01:32:22;;;;;;;6.83;3.70;;;1.90;90.30;;;;;;5031679;28;20271;-79
2022/02/12 01:34:49;;;;;;;5.33;3.63;;;1.50;90.30;;;;;;5037774;28;20233;-79
2022/02/12 01:37:16;;;;;;;5.03;3.70;;;1.00;91.10;;;;;;5038762;28;20211;-81
2022/02/12 01:39:44;;;;;;;6.87;4.23;;;0.70;92.40;;;;;;5037719;28;20221;-79
2022/02/12 01:42:11;;;;;;;6.20;4.07;;;1.00;94.60;;;;;;5038879;28;20268;-81
2022/02/12 01:44:40;;;;;;;6.10;3.87;;;1.30;93.20;;;;;;5036236;28;20233;-82
2022/02/12 01:47:09;;;;;;;5.57;3.77;;;1.10;92.00;;;;;;5041974;28;20747;-79
2022/02/12 01:49:36;;;;;;;5.57;3.87;;;0.90;92.40;;;;;;5039185;28;20246;-80
2022/02/12 01:52:06;;;;;;;5.03;3.80;;;0.70;92.80;;;;;;5038140;28;20723;-81
2022/02/12 01:54:33;;;;;;;6.00;3.90;;;0.60;93.60;;;;;;5038695;28;20309;-79
2022/02/12 01:57:03;;;;;;;7.87;4.07;;;0.40;93.90;;;;;;5037819;28;20232;-79
2022/02/12 01:59:32;;;;;;;5.63;4.00;;;0.40;94.70;;;;;;5038026;28;20293;-79
2022/02/12 02:01:59;;;;;;;5.07;4.20;;;0.50;94.50;;;;;;5038335;28;20240;-80
2022/02/12 02:04:27;;;;;;;7.50;3.90;;;0.90;95.10;;;;;;5041552;28;20229;-79
2022/02/12 02:06:54;;;;;;;5.03;4.03;;;1.20;94.20;;;;;;5038747;28;20239;-79
2022/02/12 02:09:22;;;;;;;4.53;3.50;;;1.10;92.20;;;;;;5037840;28;20248;-80
2022/02/12 02:11:49;;;;;;;6.90;3.83;;;0.80;91.90;;;;;;5042152;28;20639;-79
2022/02/12 02:14:18;;;;;;;9.43;4.03;;;0.50;93.40;;;;;;5039332;28;20198;-79
2022/02/12 02:16:45;;;;;;;7.07;3.70;;;0.90;94.80;;;;;;5041600;28;20205;-81
2022/02/12 02:19:13;;;;;;;5.53;4.00;;;0.90;92.70;;;;;;5039192;28;20567;-79
2022/02/12 02:21:40;;;;;;;5.43;4.20;;;0.50;92.40;;;;;;5041755;28;20203;-79
2022/02/12 02:24:10;;;;;;;5.23;4.00;;;0.30;93.80;;;;;;5044183;28;20671;-79
2022/02/12 02:26:38;;;;;;;4.43;3.60;;;0.60;95.20;;;;;;5041420;28;20247;-79
2022/02/12 02:29:05;;;;;;;5.27;3.77;;;0.70;94.20;;;;;;5042315;28;20239;-79
2022/02/12 02:31:32;;;;;;;5.53;3.73;;;0.60;93.50;;;;;;5042008;28;20226;-79
2022/02/12 02:33:59;;;;;;;7.73;3.87;;;0.50;94.10;;;;;;5038876;28;20202;-79
2022/02/12 02:36:25;;;;;;;8.13;3.83;;;0.70;94.20;;;;;;5032853;28;20236;-79
2022/02/12 02:38:52;;;;;;;6.90;3.70;;;0.80;93.60;;;;;;5038144;28;20208;-79
2022/02/12 02:41:21;;;;;;;8.43;4.33;;;0.50;92.80;;;;;;5028541;28;20257;-80
2022/02/12 02:43:48;;;;;;;8.83;3.90;;;0.30;93.20;;;;;;5040921;28;20279;-82
2022/02/12 02:46:24;;;;;;;7.83;4.17;;;0.10;94.00;;;;;;5029325;28;20295;-78
2022/02/12 02:48:51;;;;;;;6.87;4.10;;;-0.10;94.00;;;;;;5034655;28;20659;-80
2022/02/12 02:56:54;;;;;;;7.07;3.93;;;-0.50;95.40;;;;;;5037254;28;20287;-80
2022/02/12 02:59:25;;;;;;;5.63;4.17;;;-0.50;96.00;;;;;;5038601;28;20221;-80
2022/02/12 03:01:53;;;;;;;7.43;4.07;;;-0.10;96.60;;;;;;5037701;28;20194;-79
2022/02/12 03:04:21;;;;;;;7.73;4.47;;;0.40;96.50;;;;;;5040741;28;20581;-79
2022/02/12 03:06:52;;;;;;;6.67;3.93;;;0.50;94.10;;;;;;5041978;28;20207;-79
2022/02/12 03:09:19;;;;;;;5.63;3.50;;;0.20;93.50;;;;;;5039270;28;20238;-80
2022/02/12 03:11:48;;;;;;;6.63;4.03;;;-0.10;94.00;;;;;;5038282;28;20227;-79
2022/02/12 03:14:15;;;;;;;5.57;3.93;;;0.40;96.10;;;;;;5041625;28;20656;-79
2022/02/12 03:16:41;;;;;;;7.17;3.90;;;0.70;94.20;;;;;;5044977;28;20209;-79
2022/02/12 03:19:08;;;;;;;7.07;3.70;;;0.50;92.90;;;;;;5041788;28;20202;-79
2022/02/12 03:21:38;;;;;;;6.33;4.10;;;0.60;94.50;;;;;;5034266;28;20945;-80
2022/02/12 03:24:06;;;;;;;6.60;4.00;;;0.80;94.20;;;;;;5034463;28;20202;-79
2022/02/12 03:26:32;;;;;;;6.20;3.40;;;0.70;92.90;;;;;;5039194;28;20211;-79
2022/02/12 03:29:03;;;;;;;4.77;3.40;;;0.60;93.70;;;;;;5039363;28;20205;-79
2022/02/12 03:31:30;;;;;;;6.33;3.50;;;0.60;94.20;;;;;;5039006;28;20215;-85
2022/02/12 03:33:57;;;;;;;6.20;3.77;;;0.60;93.00;;;;;;5039936;28;20287;-79
2022/02/12 03:36:24;;;;;;;3.63;3.30;;;0.40;92.90;;;;;;5038171;28;20211;-79
2022/02/12 03:38:51;;;;;;;4.70;3.70;;;0.10;92.80;;;;;;5037047;28;20198;-79
2022/02/12 03:41:18;;;;;;;5.30;3.47;;;-0.20;93.40;;;;;;5036797;28;20254;-79
2022/02/12 03:43:45;;;;;;;5.13;3.60;;;-0.40;93.90;;;;;;5032179;28;20196;-80
2022/02/12 03:46:13;;;;;;;5.63;3.43;;;-0.60;94.70;;;;;;5033794;28;20310;-79
2022/02/12 03:48:40;;;;;;;5.60;3.40;;;-0.50;95.90;;;;;;5035015;28;20313;-80
2022/02/12 03:51:07;;;;;;;4.43;3.40;;;0.00;96.60;;;;;;5033926;28;20223;-80
2022/02/12 03:53:34;;;;;;;4.93;3.20;;;0.40;95.40;;;;;;5038308;28;20313;-80
2022/02/12 03:56:01;;;;;;;4.87;3.50;;;0.60;94.10;;;;;;5038535;28;20648;-79
2022/02/12 03:58:28;;;;;;;5.33;3.03;;;0.70;92.80;;;;;;5038828;28;20195;-80
2022/02/12 04:00:55;;;;;;;4.73;3.13;;;0.40;92.40;;;;;;5039446;28;20751;-79
2022/02/12 04:03:42;;;;;;;4.40;3.10;;;0.10;92.70;;;;;;5041700;28;20238;-79
2022/02/12 04:06:09;;;;;;;4.17;3.30;;;0.30;94.10;;;;;;5038061;28;20233;-79
2022/02/12 04:08:36;;;;;;;8.17;3.47;;;0.00;93.60;;;;;;5038034;28;20663;-79
2022/02/12 04:11:03;;;;;;;6.20;3.63;;;0.30;94.40;;;;;;5037152;28;20842;-79
2022/02/12 04:13:32;;;;;;;5.60;3.30;;;0.00;92.90;;;;;;5027751;28;20219;-80
2022/02/12 04:16:01;;;;;;;5.10;3.37;;;-0.30;93.30;;;;;;5037990;28;20240;-79
2022/02/12 04:18:28;;;;;;;3.47;3.17;;;-0.50;94.80;;;;;;5027881;28;20274;-80
2022/02/12 04:20:56;;;;;;;3.73;3.10;;;0.00;95.70;;;;;;5034026;28;20227;-79
2022/02/12 04:23:23;;;;;;;5.17;3.03;;;-0.20;94.00;;;;;;5034396;28;20218;-81
2022/02/12 04:25:50;;;;;;;4.10;2.97;;;-0.30;95.10;;;;;;5037091;28;20218;-78
2022/02/12 04:28:16;;;;;;;4.60;3.43;;;0.20;95.30;;;;;;5028941;28;20196;-80
2022/02/12 04:30:43;;;;;;;4.03;3.20;;;0.30;94.10;;;;;;5036512;28;20254;-80
2022/02/12 04:33:12;;;;;;;3.73;3.00;;;0.00;92.70;;;;;;5031832;28;20228;-81
2022/02/12 04:35:39;;;;;;;4.47;3.33;;;-0.20;94.50;;;;;;5023959;28;20627;-80
2022/02/12 04:38:07;;;;;;;4.50;3.40;;;0.00;94.30;;;;;;5039524;28;20529;-79
2022/02/12 04:40:36;;;;;;;4.00;3.10;;;-0.30;93.50;;;;;;5031444;28;20314;-79
2022/02/12 04:43:03;;;;;;;3.60;3.03;;;-0.50;94.30;;;;;;5028287;28;20206;-79
2022/02/12 04:45:30;;;;;;;5.47;3.10;;;-0.30;95.20;;;;;;5034924;28;20237;-79
2022/02/12 04:47:56;;;;;;;5.37;2.90;;;-0.20;94.50;;;;;;5047797;28;20284;-79
2022/02/12 04:50:23;;;;;;;3.30;2.67;;;-0.30;94.00;;;;;;5032206;28;20306;-79
2022/02/12 04:52:50;;;;;;;3.57;2.87;;;-0.60;93.90;;;;;;5036404;28;20244;-79
2022/02/12 04:55:19;;;;;;;4.67;3.00;;;-0.60;95.70;;;;;;5028013;28;20261;-81
2022/02/12 04:57:46;;;;;;;5.73;3.27;;;-0.40;94.80;;;;;;5037236;28;20195;-79
2022/02/12 05:00:14;;;;;;;4.70;3.00;;;-0.50;94.50;;;;;;5037232;28;20222;-79
2022/02/12 05:02:41;;;;;;;4.80;2.93;;;-0.30;96.00;;;;;;5037807;28;20649;-79
2022/02/12 05:05:09;;;;;;;5.70;3.03;;;0.00;94.50;;;;;;5040999;28;20225;-81
2022/02/12 05:07:36;;;;;;;5.60;2.87;;;0.00;94.70;;;;;;5037063;28;20272;-80
2022/02/12 05:10:03;;;;;;;5.03;3.00;;;-0.10;93.10;;;;;;5046067;28;20313;-82
2022/02/12 05:12:31;;;;;;;5.30;3.43;;;-0.40;93.90;;;;;;5034055;28;20230;-79
2022/02/12 05:15:15;;;;;;;4.93;3.10;;;-0.30;94.30;;;;;;5036173;28;20313;-81
2022/02/12 05:17:41;;;;;;;4.03;3.00;;;-0.60;93.90;;;;;;5038307;28;20222;-79
2022/02/12 05:20:10;;;;;;;7.37;3.40;;;-0.90;93.80;;;;;;5035421;28;20257;-79
2022/02/12 05:22:36;;;;;;;6.63;3.47;;;-1.10;94.70;;;;;;5042611;28;20202;-80
2022/02/12 05:25:05;;;;;;;5.10;3.50;;;-1.20;95.30;;;;;;5036380;28;20299;-79
2022/02/12 05:27:34;;;;;;;4.63;3.20;;;-1.20;95.60;;;;;;5037822;28;20661;-80
2022/02/12 05:30:01;;;;;;;5.47;3.20;;;-1.10;96.80;;;;;;5032711;28;20233;-79
2022/02/12 05:32:28;;;;;;;3.43;2.70;;;-0.50;97.20;;;;;;5037029;28;20313;-79
2022/02/12 05:34:56;;;;;;;5.70;2.77;;;-0.10;95.10;;;;;;5043586;28;20254;-79
2022/02/12 05:37:23;;;;;;;3.53;3.07;;;-0.20;94.00;;;;;;5046147;28;20218;-79
2022/02/12 05:39:49;;;;;;;3.97;2.93;;;-0.50;93.70;;;;;;5045743;28;20257;-82
2022/02/12 05:42:16;;;;;;;3.87;3.17;;;-0.20;95.40;;;;;;5038811;28;20657;-79
2022/02/12 05:44:49;;;;;;;5.60;2.97;;;-0.20;94.00;;;;;;5042461;28;20231;-79
2022/02/12 05:47:16;;;;;;;3.80;2.93;;;0.10;94.60;;;;;;5042648;28;20195;-79
2022/02/12 05:49:43;;;;;;;3.87;2.63;;;0.30;94.10;;;;;;5040294;28;20276;-79
2022/02/12 05:52:13;;;;;;;3.83;2.90;;;0.50;93.20;;;;;;5038161;28;20207;-82
2022/02/12 05:54:40;;;;;;;5.57;2.83;;;0.40;91.70;;;;;;5037281;28;20257;-79
2022/02/12 05:57:07;;;;;;;4.50;2.97;;;0.30;93.50;;;;;;5037126;28;20204;-79
2022/02/12 05:59:34;;;;;;;4.70;3.20;;;0.30;91.80;;;;;;5037453;28;20245;-79
2022/02/12 06:02:02;;;;;;;8.70;3.67;;;-0.20;91.50;;;;;;5040762;28;20223;-79
2022/02/12 06:04:33;;;;;;;5.87;3.43;;;-0.60;92.30;;;;;;5039440;28;20254;-79
2022/02/12 06:07:00;;;;;;;4.83;3.30;;;-0.50;94.70;;;;;;5031275;28;20211;-79
2022/02/12 06:09:27;;;;;;;7.73;3.63;;;-0.50;93.90;;;;;;5039075;28;20238;-79
2022/02/12 06:11:54;;;;;;;6.30;3.80;;;-0.70;93.90;;;;;;5043928;28;20293;-80
2022/02/12 06:14:21;;;;;;;5.20;3.57;;;-1.00;93.80;;;;;;5041889;28;20235;-79
2022/02/12 06:16:48;;;;;;;7.47;3.60;;;-1.30;94.80;;;;;;5039038;28;20193;-79
2022/02/12 06:19:16;;;;;;;6.03;3.57;;;-0.70;97.00;;;;;;5034029;28;20289;-79
2022/02/12 06:21:43;;;;;;;4.57;3.07;;;-0.20;95.80;;;;;;5037074;28;20607;-79
2022/02/12 06:24:10;;;;;;;4.87;3.60;;;0.10;94.00;;;;;;5033781;28;20198;-79
2022/02/12 06:26:46;;;;;;;6.83;3.70;;;0.30;94.10;;;;;;5039506;28;20229;-80
2022/02/12 06:29:13;;;;;;;6.73;3.67;;;0.30;91.90;;;;;;5036807;28;20198;-83
2022/02/12 06:31:40;;;;;;;5.77;3.60;;;-0.20;91.30;;;;;;5040317;28;20199;-81
2022/02/12 06:34:07;;;;;;;5.87;3.60;;;-0.50;92.40;;;;;;5040000;28;20223;-81
2022/02/12 06:36:35;;;;;;;6.43;3.80;;;-0.80;93.70;;;;;;5039210;28;20199;-79
2022/02/12 06:39:02;;;;;;;6.40;3.60;;;-0.60;95.50;;;;;;5039275;28;20290;-79
2022/02/12 06:41:29;;;;;;;6.57;3.37;;;-0.10;95.30;;;;;;5038602;28;20801;-79
2022/02/12 06:43:56;;;;;;;7.20;3.40;;;0.20;94.10;;;;;;5047479;28;20663;-79
2022/02/12 06:46:23;;;;;;;7.17;4.03;;;0.30;93.10;;;;;;5039106;28;20220;-79
2022/02/12 06:48:50;;;;;;;8.80;3.63;;;0.00;92.40;;;;;;5038349;28;20242;-80
2022/02/12 06:51:17;;;;;;;5.13;3.77;;;0.10;94.00;;;;;;5039124;28;20236;-79
2022/02/12 06:53:45;;;;;;;6.33;4.00;;;0.10;94.00;;;;;;5036475;28;20675;-79
2022/02/12 06:56:12;;;;;;;6.67;4.23;;;0.00;93.80;;;;;;5040206;28;20568;-80
2022/02/12 06:58:39;;;;;;;6.63;4.17;;;0.20;93.00;;;;;;5038038;28;20196;-79
2022/02/12 07:01:06;;;;;;;7.50;3.77;;;-0.10;92.40;;;;;;5039558;28;20276;-79
2022/02/12 07:03:33;;;;;;;7.50;3.80;;;0.00;93.20;;;;;;5033961;28;20211;-80
2022/02/12 07:06:00;;;;;;;6.33;3.37;;;-0.10;93.60;;;;;;5039845;28;20285;-79
2022/02/12 07:08:35;;;;;;;4.47;3.83;;;0.00;93.70;;;;;;5033960;28;20270;-80
2022/02/12 07:11:06;;;;;;;7.63;3.60;;;0.10;93.80;;;;;;5034312;28;20258;-80
2022/02/12 07:13:33;;;;;;;4.83;3.50;;;0.30;93.60;;;;;;5031874;28;20314;-80
2022/02/12 07:16:04;;;;;;;6.73;3.30;;;0.20;93.20;;;;;;5026378;28;20233;-80
2022/02/12 07:18:31;;;;;;;6.00;3.87;;;0.10;93.30;;;;;;5028718;28;20272;-79
2022/02/12 07:20:58;;;;;;;8.80;4.00;;;0.00;92.30;;;;;;5031949;28;20326;-80
2022/02/12 07:23:25;;;;;;;7.00;3.87;;;-0.20;93.10;;;;;;5029583;28;20226;-79
2022/02/12 07:25:52;;;;;;;6.87;4.37;;;-0.10;94.00;;;;;;5026907;28;20238;-81
2022/02/12 07:28:20;;;;;;;4.57;3.63;;;0.00;92.70;;;;;;5029879;28;20265;-82
2022/02/12 07:30:48;;;;;;;5.00;3.77;;;0.30;94.10;;;;;;5029185;28;20302;-79
2022/02/12 07:33:17;;;;;;;8.27;3.90;;;0.70;93.80;;;;;;5035192;28;20242;-80
2022/02/12 07:35:44;;;;;;;5.57;4.00;;;0.80;92.70;;;;;;5024347;28;20262;-80
2022/02/12 07:38:11;;;;;;;6.07;3.43;;;0.80;92.60;;;;;;5030458;28;20304;-79
2022/02/12 07:40:40;;;;;;;4.77;3.47;;;1.00;91.30;;;;;;5034785;28;20276;-80
2022/02/12 07:43:11;;;;;;;5.27;4.03;;;1.00;91.10;;;;;;5032886;28;20274;-79
2022/02/12 07:45:39;;;;;;;5.30;4.03;;;0.70;90.90;;;;;;5034264;28;20700;-80
2022/02/12 07:48:06;;;;;;;6.50;4.30;;;0.60;91.50;;;;;;5037160;28;20204;-80
2022/02/12 07:50:34;;;;;;;8.27;5.63;;;0.60;92.10;;;;;;5038242;28;20233;-80
2022/02/12 07:53:02;;;;;;;5.23;4.17;;;0.90;92.90;;;;;;5049613;28;20222;-81
2022/02/12 07:55:30;;;;;;;5.00;3.83;;;1.10;90.90;;;;;;5044970;28;20601;-80
2022/02/12 07:57:57;;;;;;;5.00;4.00;;;1.30;91.30;;;;;;5042366;28;20266;-84
2022/02/12 08:00:25;;;;;;;5.50;4.07;;;1.60;90.00;;;;;;5042930;28;20626;-82
2022/02/12 08:02:56;;;;;;;5.03;4.10;;;1.90;88.60;;;;;;5039061;28;20628;-80
2022/02/12 08:05:29;;;;;;;5.27;4.13;;;2.00;84.60;;;;;;5036420;28;20230;-84
2022/02/12 08:07:57;;;;;;;5.50;3.80;;;1.80;86.90;;;;;;5032943;28;20217;-81
2022/02/12 08:13:08;;;;;;;5.97;4.23;;;1.80;86.90;;;;;;5038281;28;20254;-82
2022/02/12 08:15:34;;;;;;;5.63;4.37;;;1.70;87.80;;;;;;5028565;28;20298;-82
2022/02/12 08:18:03;;;;;;;6.80;4.03;;;1.70;88.50;;;;;;5038475;28;20281;-83
2022/02/12 08:20:30;;;;;;;5.47;4.47;;;1.60;89.70;;;;;;5031409;28;20309;-81
2022/02/12 08:22:56;;;;;;;6.30;4.43;;;1.60;89.40;;;;;;5033908;28;20202;-82
2022/02/12 08:25:23;;;;;;;7.60;4.60;;;1.60;89.40;;;;;;5040649;28;20234;-81
2022/02/12 08:27:50;;;;;;;6.63;4.37;;;1.80;88.90;;;;;;5044844;28;20222;-84
2022/02/12 08:30:17;;;;;;;7.73;4.40;;;1.70;89.90;;;;;;5032328;28;20229;-87
2022/02/12 08:32:44;;;;;;;5.50;4.37;;;1.80;90.20;;;;;;5036036;28;20226;-82
2022/02/12 08:35:15;;;;;;;6.00;4.00;;;2.00;88.80;;;;;;5037728;28;20234;-85
2022/02/12 08:37:43;;;;;;;5.43;4.40;;;2.00;88.60;;;;;;5038563;28;20194;-81
2022/02/12 08:40:12;;;;;;;6.40;4.50;;;2.30;87.30;;;;;;5031107;28;20646;-83
2022/02/12 08:42:41;;;;;;;5.37;4.10;;;2.50;87.40;;;;;;5036678;28;20194;-83
2022/02/12 08:45:10;;;;;;;6.27;4.23;;;3.00;82.30;;;;;;5029933;28;20234;-82
2022/02/12 08:47:37;;;;;;;6.00;4.00;;;3.10;81.80;;;;;;5041736;28;20221;-83
2022/02/12 08:50:08;;;;;;;5.47;4.43;;;3.10;81.40;;;;;;5040519;28;20234;-81
2022/02/12 08:52:36;;;;;;;5.43;4.30;;;3.20;80.20;;;;;;5038381;28;20198;-86
2022/02/12 08:55:03;;;;;;;6.83;3.97;;;3.30;79.80;;;;;;5024669;28;20295;-85
2022/02/12 08:57:30;;;;;;;5.57;4.57;;;3.40;81.00;;;;;;5034849;28;20252;-82
2022/02/12 08:59:57;;;;;;;7.33;4.43;;;3.60;79.70;;;;;;5033908;28;20294;-83
2022/02/12 09:02:25;;;;;;;4.67;3.97;;;3.80;78.00;;;;;;5040103;28;20191;-84
2022/02/12 09:04:52;;;;;;;7.00;4.13;;;4.00;74.50;;;;;;5039814;28;20229;-82
2022/02/12 09:07:19;;;;;;;6.90;3.50;;;4.80;72.30;;;;;;5046365;28;20206;-84
2022/02/12 09:09:55;;;;;;;3.67;3.20;;;5.20;57.60;;;;;;5040171;28;20234;-81
2022/02/12 09:12:23;;;;;;;3.73;2.60;;;5.70;53.50;;;;;;5039633;28;20241;-82
2022/02/12 09:14:49;;;;;;;5.05;3.20;;;5.80;49.80;;;;;;5044189;28;20385;-82
2022/02/12 09:17:16;;;;;;;3.35;2.72;;;6.80;43.50;;;;;;5035140;28;20199;-82
2022/02/12 09:19:47;;;;;;;4.72;2.83;;;6.60;43.30;;;;;;5037582;28;20312;-84
2022/02/12 09:22:18;;;;;;;5.35;2.70;;;6.80;41.50;;;;;;5039428;28;20210;-83
2022/02/12 09:24:45;;;;;;;5.10;2.80;;;7.30;39.60;;;;;;5054243;28;20256;-83
2022/02/12 09:27:28;;;;;;;3.80;2.58;;;6.90;38.00;;;;;;5087303;28;20231;-84
2022/02/12 09:29:58;;;;;;;6.00;3.25;;;7.80;37.20;;;;;;5086629;28;20258;-83
2022/02/12 09:32:31;;;;;;;4.70;2.42;;;7.80;34.60;;;;;;5069951;28;20201;-82
2022/02/12 09:34:59;;;;;;;12.98;7.72;;;7.90;33.80;;;;;;5097689;28;20236;-82
2022/02/12 09:37:57;;;;;;;7.88;4.20;;;8.20;35.90;;;;;;5106199;28;20248;-82
2022/02/12 09:40:31;;;;;;;4.20;2.60;;;9.60;30.80;;;;;;5104809;28;20220;-86
2022/02/12 09:43:34;;;;;;;4.03;2.47;;;9.30;30.00;;;;;;5117862;28;20196;-84
2022/02/12 09:46:17;;;;;;;3.08;2.30;;;11.10;24.50;;;;;;5116111;28;20234;-84
2022/02/12 09:48:46;;;;;;;2.80;2.50;;;9.80;24.90;;;;;;5104408;28;20764;-83
2022/02/12 09:51:34;;;;;;;4.03;2.58;;;9.30;28.40;;;;;;5098585;28;20227;-82
2022/02/12 09:54:03;;;;;;;4.55;2.65;;;9.70;26.30;;;;;;5093442;28;20242;-83
2022/02/12 09:56:30;;;;;;;4.30;2.85;;;9.40;27.00;;;;;;5100336;28;20221;-82
2022/02/12 09:58:59;;;;;;;4.30;2.53;;;9.40;27.10;;;;;;5086903;28;20233;-84
2022/02/12 10:01:39;;;;;;;5.18;2.67;;;8.90;28.70;;;;;;5034045;28;20241;-84
2022/02/12 10:04:21;;;;;;;9.05;2.45;;;9.30;27.60;;;;;;5091001;28;20264;-83
2022/02/12 10:06:48;;;;;;;4.75;2.15;;;8.70;26.90;;;;;;5146881;28;20218;-84
2022/02/12 10:09:17;;;;;;;3.78;2.53;;;8.60;26.90;;;;;;5140642;28;20567;-83
2022/02/12 10:11:47;;;;;;;4.22;2.30;;;9.20;26.10;;;;;;5128327;28;20200;-82
2022/02/12 10:14:35;;;;;;;3.25;2.20;;;8.90;26.60;;;;;;5144442;28;20234;-83
2022/02/12 10:17:04;;;;;;;3.60;1.90;;;10.30;23.90;;;;;;5128788;28;20191;-84
2022/02/12 10:20:06;;;;;;;3.03;2.08;;;10.60;22.90;;;;;;5128056;28;20231;-85
2022/02/12 10:22:38;;;;;;;4.22;2.50;;;10.00;23.60;;;;;;5126828;28;20200;-84
2022/02/12 10:25:06;;;;;;;3.67;2.00;;;10.50;21.40;;;;;;5106409;28;20246;-87
2022/02/12 10:27:54;;;;;;;4.20;2.10;;;8.70;24.10;;;;;;5127574;28;20204;-83
2022/02/12 10:30:29;;;;;;;2.95;2.20;;;9.30;24.50;;;;;;5129887;27;20257;-85
2022/02/12 10:33:15;;;;;;;3.40;2.20;;;9.30;24.50;;;;;;5126092;28;20230;-85
2022/02/12 10:35:57;;;;;;;3.65;2.50;;;9.30;24.50;;;;;;5132570;27;20227;-83
2022/02/12 10:38:32;;;;;;;4.40;2.15;;;8.80;24.30;;;;;;5110959;28;20255;-86
2022/02/12 10:41:14;;;;;;;3.22;2.15;;;9.10;24.40;;;;;;5129149;27;20236;-83
2022/02/12 10:43:43;;;;;;;2.67;1.95;;;9.00;24.30;;;;;;5133636;27;20188;-84
2022/02/12 10:46:11;;;;;;;4.15;2.53;;;9.70;24.70;;;;;;5126638;27;20227;-82
2022/02/12 10:48:41;;;;;;;7.03;4.88;;;10.20;22.50;;;;;;5136301;27;20231;-82
2022/02/12 10:51:11;;;;;;;3.90;2.50;;;9.90;24.20;;;;;;5142401;27;20222;-84
2022/02/12 10:53:38;;;;;;;2.75;2.30;;;9.60;22.60;;;;;;5124100;27;20195;-82
2022/02/12 10:56:06;;;;;;;5.65;2.30;;;8.90;24.20;;;;;;5133835;27;20311;-82
2022/02/12 10:58:39;;;;;;;3.42;2.00;;;8.70;24.10;;;;;;5126592;27;20208;-82
2022/02/12 11:01:08;;;;;;;2.85;2.00;;;7.80;25.80;;;;;;5118760;27;20228;-82
2022/02/12 11:03:37;;;;;;;3.03;2.10;;;7.70;25.30;;;;;;5124142;28;20192;-82
2022/02/12 11:06:05;;;;;;;4.32;2.22;;;8.10;26.20;;;;;;5126834;27;20995;-82
2022/02/12 11:08:33;;;;;;;3.63;2.30;;;7.80;26.90;;;;;;5135967;27;20202;-83
2022/02/12 11:11:01;;;;;;;3.80;2.20;;;8.40;26.70;;;;;;5128219;27;20246;-85
2022/02/12 11:13:30;;;;;;;2.80;2.20;;;8.70;24.10;;;;;;5136718;27;20202;-83
2022/02/12 11:15:57;;;;;;;3.38;2.20;;;7.90;25.50;;;;;;5130869;27;20227;-85
2022/02/12 11:18:26;;;;;;;6.70;2.53;;;8.10;26.70;;;;;;5119051;27;20195;-82
2022/02/12 11:20:56;;;;;;;3.38;2.30;;;8.30;26.70;;;;;;5131779;27;20223;-85
2022/02/12 11:23:28;;;;;;;4.60;2.13;;;7.80;26.80;;;;;;5125433;27;20263;-83
2022/02/12 11:25:56;;;;;;;2.33;1.92;;;7.30;29.70;;;;;;5129462;27;20253;-83
2022/02/12 11:28:31;;;;;;;2.50;1.83;;;6.80;29.70;;;;;;5124084;27;20202;-81
2022/02/12 11:31:19;;;;;;;2.15;1.67;;;6.70;30.50;;;;;;5122976;27;20720;-79
2022/02/12 11:34:10;;;;;;;2.53;1.80;;;6.70;29.90;;;;;;5103864;28;20196;-80
2022/02/12 11:36:39;;;;;;;3.03;1.73;;;6.80;29.10;;;;;;5121688;27;20322;-79
2022/02/12 11:39:08;;;;;;;3.83;1.90;;;6.70;29.30;;;;;;5131882;27;20199;-83
2022/02/12 11:41:36;;;;;;;2.37;2.00;;;6.30;31.20;;;;;;5131969;27;20263;-83
2022/02/12 11:44:03;;;;;;;3.03;2.10;;;5.90;31.30;;;;;;5133824;27;20272;-80
2022/02/12 11:47:21;;;;;;;5.03;1.97;;;5.90;32.90;;;;;;5137722;27;20231;-82
2022/02/12 11:49:54;;;;;;;3.37;1.97;;;5.70;31.80;;;;;;5127055;27;20264;-87
2022/02/12 11:52:55;;;;;;;2.73;2.03;;;5.60;30.30;;;;;;5125715;27;20192;-82
2022/02/12 11:55:39;;;;;;;3.27;2.00;;;5.60;30.60;;;;;;5120553;27;20295;-84
2022/02/12 11:58:05;;;;;;;3.90;2.27;;;5.70;30.70;;;;;;5135007;27;20191;-81
2022/02/12 12:00:39;;;;;;;4.37;2.20;;;5.60;31.10;;;;;;5123718;27;20757;-82
2022/02/12 12:03:09;;;;;;;4.10;2.50;;;5.50;32.30;;;;;;5131562;27;20183;-85
2022/02/12 12:09:11;;;;;;;4.10;2.50;;;5.50;33.00;;;;;;5073126;28;20521;-83
2022/02/12 12:11:39;;;;;;;2.60;2.13;;;5.50;32.90;;;;;;5039888;28;20214;-83
2022/02/12 12:14:33;;;;;;;6.17;4.03;;;5.50;32.80;;;;;;5035207;28;20226;-82
2022/02/12 12:17:02;;;;;;;3.50;2.00;;;5.60;33.20;;;;;;5037471;28;20206;-87
2022/02/12 12:19:30;;;;;;;5.50;2.97;;;5.70;32.20;;;;;;5038863;28;20321;-85
2022/02/12 12:22:02;;;;;;;3.00;2.20;;;5.70;33.00;;;;;;5040239;28;20218;-84
2022/02/12 12:24:31;;;;;;;2.87;2.43;;;5.80;32.90;;;;;;5047495;28;20286;-87
2022/02/12 12:26:58;;;;;;;4.23;2.20;;;5.70;33.40;;;;;;5041260;28;20702;-84
2022/02/12 12:32:13;;;;;;;25.27;8.03;;;5.70;33.30;;;;;;5033357;28;20210;-83
2022/02/12 12:34:51;;;;;;;4.90;2.70;;;5.70;35.50;;;;;;5039034;28;20225;-85
2022/02/12 12:37:18;;;;;;;2.97;2.20;;;5.80;35.10;;;;;;5041608;28;20205;-85
2022/02/12 12:39:46;;;;;;;4.20;2.60;;;5.80;33.70;;;;;;5052760;28;20245;-90
2022/02/12 12:42:29;;;;;;;3.80;2.23;;;5.80;32.90;;;;;;5040129;28;20565;-87
2022/02/12 12:45:01;;;;;;;5.37;2.27;;;5.70;33.60;;;;;;5047033;28;20292;-85
2022/02/12 12:47:29;;;;;;;6.43;3.17;;;5.70;33.30;;;;;;5043106;28;20234;-83
2022/02/12 12:49:58;;;;;;;4.23;2.40;;;5.80;36.20;;;;;;5040722;28;20226;-84
2022/02/12 12:52:30;;;;;;;4.83;2.23;;;5.80;34.80;;;;;;5033142;28;20229;-85
2022/02/12 12:55:07;;;;;;;3.67;2.33;;;5.80;34.80;;;;;;5039692;28;20230;-83
2022/02/12 12:57:39;;;;;;;2.60;2.00;;;5.90;35.40;;;;;;5039025;28;20198;-83
2022/02/12 13:00:08;;;;;;;2.80;2.10;;;5.90;32.50;;;;;;5035535;28;20233;-83
2022/02/12 13:02:35;;;;;;;3.63;2.20;;;5.90;33.00;;;;;;5049663;28;20234;-82
2022/02/12 13:05:02;;;;;;;4.27;2.37;;;5.80;34.20;;;;;;5038147;28;20227;-83
2022/02/12 13:07:32;;;;;;;3.23;2.23;;;5.80;35.10;;;;;;5041509;28;20269;-82
2022/02/12 13:10:02;;;;;;;4.70;2.30;;;5.80;33.50;;;;;;5049078;28;20236;-83
2022/02/12 13:12:39;;;;;;;3.90;2.33;;;5.80;33.30;;;;;;5055646;28;20289;-82
2022/02/12 13:15:08;;;;;;;3.00;2.20;;;5.90;33.20;;;;;;5052188;28;20226;-82
2022/02/12 13:17:40;;;;;;;5.20;2.73;;;5.90;34.40;;;;;;5063106;28;20753;-84
2022/02/12 13:20:12;;;;;;;6.77;2.80;;;5.80;35.10;;;;;;5036185;28;20225;-83
2022/02/12 13:22:41;;;;;;;6.83;2.83;;;5.80;36.50;;;;;;5040772;28;20206;-83